sensor_id;sensor_type;location;lat;lon;timestamp;noise_LAeq;noise_LA_min;noise_LA_max;noise_LA01;noise_LA95
72858;Laerm;62742;52.136;4.500;2023-04-03T00:00:45;50.13;44.05;54.49;;
72858;Laerm;62742;52.136;4.500;2023-04-03T00:03:11;51.34;44.92;54.75;;
72858;Laerm;62742;52.136;4.500;2023-04-03T00:05:37;50.54;45.52;54.34;;
72858;Laerm;62742;52.136;4.500;2023-04-03T00:08:04;51.06;45.98;55.10;;
72858;Laerm;62742;52.136;4.500;2023-04-03T00:10:34;50.04;44.17;55.70;;
72858;Laerm;62742;52.136;4.500;2023-04-03T00:13:00;50.93;44.24;54.36;;
72858;Laerm;62742;52.136;4.500;2023-04-03T00:15:26;50.94;44.89;54.83;;
72858;Laerm;62742;52.136;4.500;2023-04-03T00:17:53;50.48;45.51;54.77;;
72858;Laerm;62742;52.136;4.500;2023-04-03T00:20:19;50.86;45.34;54.55;;
72858;Laerm;62742;52.136;4.500;2023-04-03T00:22:45;49.89;44.65;54.39;;
72858;Laerm;62742;52.136;4.500;2023-04-03T00:25:11;49.41;43.83;53.99;;
72858;Laerm;62742;52.136;4.500;2023-04-03T00:27:38;49.76;44.13;53.66;;
72858;Laerm;62742;52.136;4.500;2023-04-03T00:30:06;50.15;43.75;54.28;;
72858;Laerm;62742;52.136;4.500;2023-04-03T00:32:33;50.36;45.34;54.24;;
72858;Laerm;62742;52.136;4.500;2023-04-03T00:34:59;50.13;44.73;54.57;;
72858;Laerm;62742;52.136;4.500;2023-04-03T00:37:25;50.24;45.02;54.13;;
72858;Laerm;62742;52.136;4.500;2023-04-03T00:39:52;49.19;44.48;54.15;;
72858;Laerm;62742;52.136;4.500;2023-04-03T00:42:18;49.68;45.24;54.02;;
72858;Laerm;62742;52.136;4.500;2023-04-03T00:47:13;50.16;45.44;54.41;;
72858;Laerm;62742;52.136;4.500;2023-04-03T00:49:43;50.16;44.25;55.20;;
72858;Laerm;62742;52.136;4.500;2023-04-03T00:52:15;49.91;44.96;54.39;;
72858;Laerm;62742;52.136;4.500;2023-04-03T00:54:42;49.12;44.26;54.27;;
72858;Laerm;62742;52.136;4.500;2023-04-03T00:57:10;48.20;43.55;52.92;;
72858;Laerm;62742;52.136;4.500;2023-04-03T00:59:43;49.12;43.60;53.39;;
72858;Laerm;62742;52.136;4.500;2023-04-03T01:02:11;48.14;43.69;53.43;;
72858;Laerm;62742;52.136;4.500;2023-04-03T01:04:39;48.42;43.22;53.52;;
72858;Laerm;62742;52.136;4.500;2023-04-03T01:07:10;49.76;44.70;53.76;;
72858;Laerm;62742;52.136;4.500;2023-04-03T01:09:37;49.40;43.80;53.72;;
72858;Laerm;62742;52.136;4.500;2023-04-03T01:12:28;50.25;43.83;54.72;;
72858;Laerm;62742;52.136;4.500;2023-04-03T01:14:57;50.29;44.94;54.39;;
72858;Laerm;62742;52.136;4.500;2023-04-03T01:17:38;49.75;44.31;54.40;;
72858;Laerm;62742;52.136;4.500;2023-04-03T01:25:24;49.72;44.35;53.74;;
72858;Laerm;62742;52.136;4.500;2023-04-03T01:27:50;49.73;44.54;53.85;;
72858;Laerm;62742;52.136;4.500;2023-04-03T01:30:19;48.67;43.73;53.58;;
72858;Laerm;62742;52.136;4.500;2023-04-03T01:32:46;49.07;44.18;53.73;;
72858;Laerm;62742;52.136;4.500;2023-04-03T01:35:13;49.09;44.31;53.91;;
72858;Laerm;62742;52.136;4.500;2023-04-03T01:37:39;50.38;45.29;55.09;;
72858;Laerm;62742;52.136;4.500;2023-04-03T01:40:06;49.78;44.53;53.62;;
72858;Laerm;62742;52.136;4.500;2023-04-03T01:42:32;50.57;45.21;54.27;;
72858;Laerm;62742;52.136;4.500;2023-04-03T01:44:59;50.99;45.14;54.42;;
72858;Laerm;62742;52.136;4.500;2023-04-03T01:47:25;50.12;45.39;53.57;;
72858;Laerm;62742;52.136;4.500;2023-04-03T01:49:51;49.47;44.11;54.71;;
72858;Laerm;62742;52.136;4.500;2023-04-03T01:52:17;50.26;44.28;54.17;;
72858;Laerm;62742;52.136;4.500;2023-04-03T01:54:44;51.02;45.98;54.83;;
72858;Laerm;62742;52.136;4.500;2023-04-03T01:57:10;51.18;46.09;54.40;;
72858;Laerm;62742;52.136;4.500;2023-04-03T01:59:36;49.97;45.07;53.79;;
72858;Laerm;62742;52.136;4.500;2023-04-03T02:02:02;50.57;45.64;53.79;;
72858;Laerm;62742;52.136;4.500;2023-04-03T02:04:28;49.88;44.89;54.04;;
72858;Laerm;62742;52.136;4.500;2023-04-03T02:06:55;50.44;45.00;54.26;;
72858;Laerm;62742;52.136;4.500;2023-04-03T02:09:21;49.67;44.33;54.21;;
72858;Laerm;62742;52.136;4.500;2023-04-03T02:11:47;49.63;44.38;54.32;;
72858;Laerm;62742;52.136;4.500;2023-04-03T02:14:13;50.88;46.47;53.90;;
72858;Laerm;62742;52.136;4.500;2023-04-03T02:16:39;51.60;47.29;54.23;;
72858;Laerm;62742;52.136;4.500;2023-04-03T02:19:06;51.47;44.97;54.97;;
72858;Laerm;62742;52.136;4.500;2023-04-03T02:21:32;51.66;47.16;55.35;;
72858;Laerm;62742;52.136;4.500;2023-04-03T02:23:58;51.56;45.83;54.39;;
72858;Laerm;62742;52.136;4.500;2023-04-03T02:26:24;50.79;45.28;54.21;;
72858;Laerm;62742;52.136;4.500;2023-04-03T02:28:51;51.06;45.31;54.19;;
72858;Laerm;62742;52.136;4.500;2023-04-03T02:31:18;51.30;45.99;54.41;;
72858;Laerm;62742;52.136;4.500;2023-04-03T02:33:44;51.27;45.42;54.48;;
72858;Laerm;62742;52.136;4.500;2023-04-03T02:36:10;51.37;45.22;54.27;;
72858;Laerm;62742;52.136;4.500;2023-04-03T02:38:37;51.73;46.94;54.89;;
72858;Laerm;62742;52.136;4.500;2023-04-03T02:41:06;52.10;47.71;55.59;;
72858;Laerm;62742;52.136;4.500;2023-04-03T02:43:33;51.26;46.82;54.23;;
72858;Laerm;62742;52.136;4.500;2023-04-03T02:45:59;51.28;45.01;54.44;;
72858;Laerm;62742;52.136;4.500;2023-04-03T02:48:26;51.22;45.99;54.77;;
72858;Laerm;62742;52.136;4.500;2023-04-03T02:50:52;51.35;47.76;53.75;;
72858;Laerm;62742;52.136;4.500;2023-04-03T02:53:19;51.25;46.87;54.18;;
72858;Laerm;62742;52.136;4.500;2023-04-03T02:55:45;51.08;46.33;53.61;;
72858;Laerm;62742;52.136;4.500;2023-04-03T02:58:11;51.54;47.04;54.11;;
72858;Laerm;62742;52.136;4.500;2023-04-03T03:00:38;51.75;46.97;54.95;;
72858;Laerm;62742;52.136;4.500;2023-04-03T03:03:05;51.76;43.92;54.55;;
72858;Laerm;62742;52.136;4.500;2023-04-03T03:05:31;50.73;45.19;54.36;;
72858;Laerm;62742;52.136;4.500;2023-04-03T03:07:58;51.32;47.02;54.00;;
72858;Laerm;62742;52.136;4.500;2023-04-03T03:10:24;51.07;46.30;53.84;;
72858;Laerm;62742;52.136;4.500;2023-04-03T03:12:50;51.23;48.28;54.24;;
72858;Laerm;62742;52.136;4.500;2023-04-03T03:15:16;51.25;47.85;53.62;;
72858;Laerm;62742;52.136;4.500;2023-04-03T03:17:43;51.23;47.43;53.83;;
72858;Laerm;62742;52.136;4.500;2023-04-03T03:20:10;51.77;48.40;54.29;;
72858;Laerm;62742;52.136;4.500;2023-04-03T03:22:37;51.99;48.36;54.78;;
72858;Laerm;62742;52.136;4.500;2023-04-03T03:25:03;51.28;46.15;54.13;;
72858;Laerm;62742;52.136;4.500;2023-04-03T03:27:30;51.20;47.69;53.54;;
72858;Laerm;62742;52.136;4.500;2023-04-03T03:29:56;51.10;48.45;53.81;;
72858;Laerm;62742;52.136;4.500;2023-04-03T03:32:23;51.20;46.02;53.61;;
72858;Laerm;62742;52.136;4.500;2023-04-03T03:34:49;51.32;48.89;53.73;;
72858;Laerm;62742;52.136;4.500;2023-04-03T03:37:15;51.35;48.67;54.20;;
72858;Laerm;62742;52.136;4.500;2023-04-03T03:39:41;50.75;47.26;53.47;;
72858;Laerm;62742;52.136;4.500;2023-04-03T03:42:08;50.65;46.83;53.35;;
72858;Laerm;62742;52.136;4.500;2023-04-03T03:44:36;50.41;45.08;52.71;;
72858;Laerm;62742;52.136;4.500;2023-04-03T03:47:02;50.52;45.66;53.02;;
72858;Laerm;62742;52.136;4.500;2023-04-03T03:49:28;50.07;45.83;53.47;;
72858;Laerm;62742;52.136;4.500;2023-04-03T03:51:55;50.29;46.05;53.26;;
72858;Laerm;62742;52.136;4.500;2023-04-03T03:54:21;50.09;44.03;56.10;;
72858;Laerm;62742;52.136;4.500;2023-04-03T03:56:47;50.81;45.63;53.83;;
72858;Laerm;62742;52.136;4.500;2023-04-03T03:59:13;51.19;47.80;53.59;;
72858;Laerm;62742;52.136;4.500;2023-04-03T04:01:40;50.83;45.42;53.60;;
72858;Laerm;62742;52.136;4.500;2023-04-03T04:04:06;50.32;46.46;55.06;;
72858;Laerm;62742;52.136;4.500;2023-04-03T04:06:32;49.98;46.32;55.46;;
72858;Laerm;62742;52.136;4.500;2023-04-03T04:08:58;50.63;45.85;53.84;;
72858;Laerm;62742;52.136;4.500;2023-04-03T04:11:25;50.26;45.97;53.43;;
72858;Laerm;62742;52.136;4.500;2023-04-03T04:13:53;49.82;45.30;53.01;;
72858;Laerm;62742;52.136;4.500;2023-04-03T04:16:19;50.14;45.95;52.53;;
72858;Laerm;62742;52.136;4.500;2023-04-03T04:18:45;50.35;46.42;53.65;;
72858;Laerm;62742;52.136;4.500;2023-04-03T04:21:11;50.43;46.40;53.14;;
72858;Laerm;62742;52.136;4.500;2023-04-03T04:23:37;50.11;45.04;53.68;;
72858;Laerm;62742;52.136;4.500;2023-04-03T04:26:04;50.02;45.15;53.39;;
72858;Laerm;62742;52.136;4.500;2023-04-03T04:28:30;49.85;44.65;52.79;;
72858;Laerm;62742;52.136;4.500;2023-04-03T04:30:56;50.23;46.81;53.29;;
72858;Laerm;62742;52.136;4.500;2023-04-03T04:33:22;50.73;47.17;53.65;;
72858;Laerm;62742;52.136;4.500;2023-04-03T04:35:48;50.11;45.95;53.07;;
72858;Laerm;62742;52.136;4.500;2023-04-03T04:38:14;49.91;46.39;52.52;;
72858;Laerm;62742;52.136;4.500;2023-04-03T04:40:40;49.97;46.49;52.68;;
72858;Laerm;62742;52.136;4.500;2023-04-03T04:43:07;49.70;46.92;52.08;;
72858;Laerm;62742;52.136;4.500;2023-04-03T04:45:33;49.58;46.29;52.24;;
72858;Laerm;62742;52.136;4.500;2023-04-03T04:47:59;49.87;45.94;52.82;;
72858;Laerm;62742;52.136;4.500;2023-04-03T04:50:26;49.14;44.84;52.44;;
72858;Laerm;62742;52.136;4.500;2023-04-03T04:52:52;49.64;44.69;52.64;;
72858;Laerm;62742;52.136;4.500;2023-04-03T04:55:19;50.07;46.39;52.98;;
72858;Laerm;62742;52.136;4.500;2023-04-03T04:57:45;49.63;45.80;52.36;;
72858;Laerm;62742;52.136;4.500;2023-04-03T05:00:12;49.39;46.64;52.28;;
72858;Laerm;62742;52.136;4.500;2023-04-03T05:02:38;49.50;45.92;52.82;;
72858;Laerm;62742;52.136;4.500;2023-04-03T05:05:05;49.82;46.30;52.67;;
72858;Laerm;62742;52.136;4.500;2023-04-03T05:07:32;49.34;46.34;52.64;;
72858;Laerm;62742;52.136;4.500;2023-04-03T05:09:59;48.81;45.09;51.81;;
72858;Laerm;62742;52.136;4.500;2023-04-03T05:12:25;49.50;45.99;52.72;;
72858;Laerm;62742;52.136;4.500;2023-04-03T05:14:51;49.61;44.46;52.82;;
72858;Laerm;62742;52.136;4.500;2023-04-03T05:17:18;49.89;45.61;53.29;;
72858;Laerm;62742;52.136;4.500;2023-04-03T05:19:44;50.28;47.27;52.57;;
72858;Laerm;62742;52.136;4.500;2023-04-03T05:22:10;50.29;47.01;53.22;;
72858;Laerm;62742;52.136;4.500;2023-04-03T05:24:36;49.96;45.98;53.90;;
72858;Laerm;62742;52.136;4.500;2023-04-03T05:27:03;48.85;45.27;52.45;;
72858;Laerm;62742;52.136;4.500;2023-04-03T05:29:30;48.91;45.32;52.21;;
72858;Laerm;62742;52.136;4.500;2023-04-03T05:31:56;48.97;45.66;51.59;;
72858;Laerm;62742;52.136;4.500;2023-04-03T05:34:22;48.83;45.16;52.39;;
72858;Laerm;62742;52.136;4.500;2023-04-03T05:36:48;48.74;45.17;52.38;;
72858;Laerm;62742;52.136;4.500;2023-04-03T05:39:15;49.32;45.19;52.77;;
72858;Laerm;62742;52.136;4.500;2023-04-03T05:41:41;49.18;45.93;52.36;;
72858;Laerm;62742;52.136;4.500;2023-04-03T05:44:07;49.43;45.08;54.59;;
72858;Laerm;62742;52.136;4.500;2023-04-03T05:46:34;49.18;46.26;52.16;;
72858;Laerm;62742;52.136;4.500;2023-04-03T05:49:00;48.94;45.59;51.88;;
72858;Laerm;62742;52.136;4.500;2023-04-03T05:51:34;49.56;46.03;52.50;;
72858;Laerm;62742;52.136;4.500;2023-04-03T05:54:24;49.76;45.67;52.74;;
72858;Laerm;62742;52.136;4.500;2023-04-03T05:56:51;49.76;44.14;52.86;;
72858;Laerm;62742;52.136;4.500;2023-04-03T05:59:19;50.05;45.77;52.93;;
72858;Laerm;62742;52.136;4.500;2023-04-03T06:01:46;50.23;46.85;53.06;;
72858;Laerm;62742;52.136;4.500;2023-04-03T06:04:13;50.34;47.05;52.78;;
72858;Laerm;62742;52.136;4.500;2023-04-03T06:09:14;50.54;45.18;53.16;;
72858;Laerm;62742;52.136;4.500;2023-04-03T06:11:41;50.47;46.38;53.60;;
72858;Laerm;62742;52.136;4.500;2023-04-03T06:14:08;50.46;45.86;57.62;;
72858;Laerm;62742;52.136;4.500;2023-04-03T06:16:34;50.57;46.65;56.28;;
72858;Laerm;62742;52.136;4.500;2023-04-03T06:19:01;50.42;45.39;56.76;;
72858;Laerm;62742;52.136;4.500;2023-04-03T06:21:28;50.85;46.77;55.30;;
72858;Laerm;62742;52.136;4.500;2023-04-03T06:23:54;50.32;45.23;53.91;;
72858;Laerm;62742;52.136;4.500;2023-04-03T06:26:20;50.54;44.24;53.34;;
72858;Laerm;62742;52.136;4.500;2023-04-03T06:28:46;50.81;47.48;53.89;;
72858;Laerm;62742;52.136;4.500;2023-04-03T06:31:13;50.46;46.36;53.00;;
72858;Laerm;62742;52.136;4.500;2023-04-03T06:33:39;50.63;46.48;53.53;;
72858;Laerm;62742;52.136;4.500;2023-04-03T06:36:06;50.86;46.02;53.69;;
72858;Laerm;62742;52.136;4.500;2023-04-03T06:38:34;51.08;46.33;54.52;;
72858;Laerm;62742;52.136;4.500;2023-04-03T06:41:01;50.32;44.94;53.94;;
72858;Laerm;62742;52.136;4.500;2023-04-03T06:43:27;50.79;43.98;54.49;;
72858;Laerm;62742;52.136;4.500;2023-04-03T06:45:54;50.34;44.73;54.11;;
72858;Laerm;62742;52.136;4.500;2023-04-03T06:48:21;49.89;44.94;54.89;;
72858;Laerm;62742;52.136;4.500;2023-04-03T06:50:48;50.58;44.37;54.27;;
72858;Laerm;62742;52.136;4.500;2023-04-03T06:53:14;50.17;44.93;54.15;;
72858;Laerm;62742;52.136;4.500;2023-04-03T06:55:40;49.19;43.72;53.93;;
72858;Laerm;62742;52.136;4.500;2023-04-03T06:58:07;48.72;44.35;54.64;;
72858;Laerm;62742;52.136;4.500;2023-04-03T07:00:33;48.07;43.48;54.64;;
72858;Laerm;62742;52.136;4.500;2023-04-03T07:03:00;47.73;43.83;53.32;;
72858;Laerm;62742;52.136;4.500;2023-04-03T07:05:26;47.50;44.03;53.39;;
72858;Laerm;62742;52.136;4.500;2023-04-03T07:07:52;48.00;43.54;52.97;;
72858;Laerm;62742;52.136;4.500;2023-04-03T07:10:19;47.78;43.86;53.06;;
72858;Laerm;62742;52.136;4.500;2023-04-03T07:12:46;46.43;42.74;52.22;;
72858;Laerm;62742;52.136;4.500;2023-04-03T07:15:12;46.97;42.35;53.98;;
72858;Laerm;62742;52.136;4.500;2023-04-03T07:17:40;47.04;43.25;52.70;;
72858;Laerm;62742;52.136;4.500;2023-04-03T07:20:07;46.97;43.09;52.67;;
72858;Laerm;62742;52.136;4.500;2023-04-03T07:22:34;46.21;42.90;52.31;;
72858;Laerm;62742;52.136;4.500;2023-04-03T07:25:00;46.05;42.80;53.69;;
72858;Laerm;62742;52.136;4.500;2023-04-03T07:27:28;47.71;43.77;53.07;;
72858;Laerm;62742;52.136;4.500;2023-04-03T07:29:54;47.46;43.18;54.94;;
72858;Laerm;62742;52.136;4.500;2023-04-03T07:32:21;47.46;43.36;53.66;;
72858;Laerm;62742;52.136;4.500;2023-04-03T07:34:48;47.74;43.24;53.29;;
72858;Laerm;62742;52.136;4.500;2023-04-03T07:37:14;47.97;43.26;53.35;;
72858;Laerm;62742;52.136;4.500;2023-04-03T07:39:44;47.90;43.60;53.88;;
72858;Laerm;62742;52.136;4.500;2023-04-03T07:42:11;47.22;43.32;53.38;;
72858;Laerm;62742;52.136;4.500;2023-04-03T07:44:38;46.67;43.43;52.85;;
72858;Laerm;62742;52.136;4.500;2023-04-03T07:47:04;46.29;43.00;53.49;;
72858;Laerm;62742;52.136;4.500;2023-04-03T07:49:30;46.63;43.47;54.07;;
72858;Laerm;62742;52.136;4.500;2023-04-03T07:51:58;48.06;43.30;55.48;;
72858;Laerm;62742;52.136;4.500;2023-04-03T07:54:25;46.74;43.83;53.55;;
72858;Laerm;62742;52.136;4.500;2023-04-03T07:56:51;48.48;43.32;60.25;;
72858;Laerm;62742;52.136;4.500;2023-04-03T07:59:18;48.59;45.18;54.55;;
72858;Laerm;62742;52.136;4.500;2023-04-03T08:01:45;49.93;45.94;56.81;;
72858;Laerm;62742;52.136;4.500;2023-04-03T08:04:11;49.66;44.62;54.77;;
72858;Laerm;62742;52.136;4.500;2023-04-03T08:06:37;48.93;45.35;55.02;;
72858;Laerm;62742;52.136;4.500;2023-04-03T08:09:04;48.94;45.60;54.32;;
72858;Laerm;62742;52.136;4.500;2023-04-03T08:11:31;48.73;43.64;58.13;;
72858;Laerm;62742;52.136;4.500;2023-04-03T08:13:57;49.13;46.15;60.41;;
72858;Laerm;62742;52.136;4.500;2023-04-03T08:16:24;49.40;45.93;54.53;;
72858;Laerm;62742;52.136;4.500;2023-04-03T08:18:54;50.49;45.70;60.51;;
72858;Laerm;62742;52.136;4.500;2023-04-03T08:21:21;49.66;45.67;57.91;;
72858;Laerm;62742;52.136;4.500;2023-04-03T08:23:50;50.39;43.66;59.86;;
72858;Laerm;62742;52.136;4.500;2023-04-03T08:26:18;49.76;44.90;57.93;;
72858;Laerm;62742;52.136;4.500;2023-04-03T08:28:47;50.18;43.10;59.89;;
72858;Laerm;62742;52.136;4.500;2023-04-03T08:31:17;50.22;44.01;59.79;;
72858;Laerm;62742;52.136;4.500;2023-04-03T08:33:44;50.94;44.86;58.36;;
72858;Laerm;62742;52.136;4.500;2023-04-03T08:36:25;52.26;44.68;61.40;;
72858;Laerm;62742;52.136;4.500;2023-04-03T08:38:53;50.79;47.34;55.81;;
72858;Laerm;62742;52.136;4.500;2023-04-03T08:41:29;50.64;46.85;56.18;;
72858;Laerm;62742;52.136;4.500;2023-04-03T08:44:27;50.20;46.33;55.47;;
72858;Laerm;62742;52.136;4.500;2023-04-03T08:47:27;51.61;46.87;57.12;;
72858;Laerm;62742;52.136;4.500;2023-04-03T08:50:05;50.01;43.62;60.39;;
72858;Laerm;62742;52.136;4.500;2023-04-03T08:52:37;50.88;44.86;60.77;;
72858;Laerm;62742;52.136;4.500;2023-04-03T08:55:13;53.35;47.87;57.31;;
72858;Laerm;62742;52.136;4.500;2023-04-03T08:57:43;52.46;46.57;58.82;;
72858;Laerm;62742;52.136;4.500;2023-04-03T09:05:33;52.48;46.89;57.70;;
72858;Laerm;62742;52.136;4.500;2023-04-03T09:08:21;55.15;46.94;58.16;;
72858;Laerm;62742;52.136;4.500;2023-04-03T09:10:50;52.83;47.26;59.78;;
72858;Laerm;62742;52.136;4.500;2023-04-03T09:13:43;54.45;45.82;62.53;;
72858;Laerm;62742;52.136;4.500;2023-04-03T09:16:20;52.91;48.43;62.71;;
72858;Laerm;62742;52.136;4.500;2023-04-03T09:19:07;53.82;46.79;62.65;;
72858;Laerm;62742;52.136;4.500;2023-04-03T09:21:38;53.70;46.38;61.42;;
72858;Laerm;62742;52.136;4.500;2023-04-03T09:24:06;54.89;46.33;60.80;;
72858;Laerm;62742;52.136;4.500;2023-04-03T09:26:42;54.89;48.23;60.27;;
72858;Laerm;62742;52.136;4.500;2023-04-03T09:29:16;54.56;47.95;61.79;;
72858;Laerm;62742;52.136;4.500;2023-04-03T09:31:44;54.27;44.94;62.12;;
72858;Laerm;62742;52.136;4.500;2023-04-03T09:36:57;52.05;48.94;56.66;;
72858;Laerm;62742;52.136;4.500;2023-04-03T09:39:26;51.62;48.49;56.16;;
72858;Laerm;62742;52.136;4.500;2023-04-03T09:42:01;52.25;48.74;56.93;;
72858;Laerm;62742;52.136;4.500;2023-04-03T09:44:38;52.53;49.38;56.92;;
72858;Laerm;62742;52.136;4.500;2023-04-03T09:47:25;52.57;49.35;57.90;;
72858;Laerm;62742;52.136;4.500;2023-04-03T09:52:45;54.44;47.71;60.74;;
72858;Laerm;62742;52.136;4.500;2023-04-03T09:55:27;55.39;48.71;61.84;;
72858;Laerm;62742;52.136;4.500;2023-04-03T09:58:00;54.72;45.58;60.44;;
72858;Laerm;62742;52.136;4.500;2023-04-03T10:00:37;53.40;42.93;64.14;;
72858;Laerm;62742;52.136;4.500;2023-04-03T10:03:05;53.58;45.23;63.61;;
72858;Laerm;62742;52.136;4.500;2023-04-03T10:05:47;54.06;45.61;63.70;;
72858;Laerm;62742;52.136;4.500;2023-04-03T10:10:44;52.89;45.13;63.37;;
72858;Laerm;62742;52.136;4.500;2023-04-03T10:15:50;53.93;46.53;63.53;;
72858;Laerm;62742;52.136;4.500;2023-04-03T10:18:33;53.41;46.66;66.48;;
72858;Laerm;62742;52.136;4.500;2023-04-03T10:21:18;52.60;47.12;64.67;;
72858;Laerm;62742;52.136;4.500;2023-04-03T10:23:51;52.41;46.31;62.25;;
72858;Laerm;62742;52.136;4.500;2023-04-03T10:26:39;52.91;45.06;65.95;;
72858;Laerm;62742;52.136;4.500;2023-04-03T10:34:40;52.69;45.33;64.24;;
72858;Laerm;62742;52.136;4.500;2023-04-03T10:42:25;54.18;45.46;64.82;;
72858;Laerm;62742;52.136;4.500;2023-04-03T10:51:05;52.70;45.52;65.21;;
72858;Laerm;62742;52.136;4.500;2023-04-03T10:56:50;50.55;46.53;59.87;;
72858;Laerm;62742;52.136;4.500;2023-04-03T11:01:56;54.67;49.94;58.62;;
72858;Laerm;62742;52.136;4.500;2023-04-03T11:04:26;54.05;51.33;56.62;;
72858;Laerm;62742;52.136;4.500;2023-04-03T11:07:08;54.90;49.72;61.98;;
72858;Laerm;62742;52.136;4.500;2023-04-03T11:09:42;54.09;50.67;61.71;;
72858;Laerm;62742;52.136;4.500;2023-04-03T11:12:15;53.20;49.31;58.77;;
72858;Laerm;62742;52.136;4.500;2023-04-03T11:14:43;52.89;49.44;58.34;;
72858;Laerm;62742;52.136;4.500;2023-04-03T11:20:16;52.42;48.27;57.77;;
72858;Laerm;62742;52.136;4.500;2023-04-03T11:23:06;53.93;48.35;59.57;;
72858;Laerm;62742;52.136;4.500;2023-04-03T11:25:38;53.71;49.24;58.90;;
72858;Laerm;62742;52.136;4.500;2023-04-03T11:28:13;53.49;49.31;59.04;;
72858;Laerm;62742;52.136;4.500;2023-04-03T11:36:31;52.63;48.15;57.92;;
72858;Laerm;62742;52.136;4.500;2023-04-03T11:39:09;52.68;48.68;58.33;;
72858;Laerm;62742;52.136;4.500;2023-04-03T11:41:42;53.83;48.87;58.79;;
72858;Laerm;62742;52.136;4.500;2023-04-03T11:44:37;54.04;49.34;58.24;;
72858;Laerm;62742;52.136;4.500;2023-04-03T11:47:09;53.38;49.38;58.81;;
72858;Laerm;62742;52.136;4.500;2023-04-03T11:49:57;54.73;49.08;58.31;;
72858;Laerm;62742;52.136;4.500;2023-04-03T12:27:09;52.07;48.07;58.44;;
72858;Laerm;62742;52.136;4.500;2023-04-03T12:29:54;53.20;48.65;58.54;;
72858;Laerm;62742;52.136;4.500;2023-04-03T12:40:50;55.31;52.67;58.57;;
72858;Laerm;62742;52.136;4.500;2023-04-03T12:48:56;54.94;50.57;59.15;;
72858;Laerm;62742;52.136;4.500;2023-04-03T12:51:30;54.31;49.83;58.78;;
72858;Laerm;62742;52.136;4.500;2023-04-03T12:54:44;54.61;50.97;59.42;;
72858;Laerm;62742;52.136;4.500;2023-04-03T12:56:51;54.66;49.77;59.93;;
72858;Laerm;62742;52.136;4.500;2023-04-03T12:59:23;54.51;50.05;59.74;;
72858;Laerm;62742;52.136;4.500;2023-04-03T13:02:00;54.67;48.01;59.77;;
72858;Laerm;62742;52.136;4.500;2023-04-03T13:04:29;54.58;49.45;60.17;;
72858;Laerm;62742;52.136;4.500;2023-04-03T13:06:56;55.35;51.27;62.44;;
72858;Laerm;62742;52.136;4.500;2023-04-03T13:09:28;54.68;48.85;61.12;;
72858;Laerm;62742;52.136;4.500;2023-04-03T13:12:02;54.03;48.79;59.63;;
72858;Laerm;62742;52.136;4.500;2023-04-03T13:14:29;54.05;49.41;60.48;;
72858;Laerm;62742;52.136;4.500;2023-04-03T13:17:06;53.09;48.90;58.62;;
72858;Laerm;62742;52.136;4.500;2023-04-03T13:19:32;54.48;49.60;59.51;;
72858;Laerm;62742;52.136;4.500;2023-04-03T13:22:10;54.72;49.20;60.46;;
72858;Laerm;62742;52.136;4.500;2023-04-03T13:24:43;55.49;50.96;58.85;;
72858;Laerm;62742;52.136;4.500;2023-04-03T13:27:11;55.11;50.82;59.94;;
72858;Laerm;62742;52.136;4.500;2023-04-03T13:29:39;53.30;47.20;59.18;;
72858;Laerm;62742;52.136;4.500;2023-04-03T13:32:06;50.90;48.14;61.54;;
72858;Laerm;62742;52.136;4.500;2023-04-03T13:34:42;49.98;47.01;53.68;;
72858;Laerm;62742;52.136;4.500;2023-04-03T13:37:25;49.95;46.93;55.66;;
72858;Laerm;62742;52.136;4.500;2023-04-03T13:42:33;50.25;47.34;55.18;;
72858;Laerm;62742;52.136;4.500;2023-04-03T13:47:43;50.60;47.46;55.11;;
72858;Laerm;62742;52.136;4.500;2023-04-03T13:50:19;50.74;47.85;56.77;;
72858;Laerm;62742;52.136;4.500;2023-04-03T13:52:53;50.41;46.69;56.46;;
72858;Laerm;62742;52.136;4.500;2023-04-03T13:55:37;50.02;47.06;54.16;;
72858;Laerm;62742;52.136;4.500;2023-04-03T13:58:23;50.94;46.71;59.51;;
72858;Laerm;62742;52.136;4.500;2023-04-03T14:00:53;56.11;47.07;60.33;;
72858;Laerm;62742;52.136;4.500;2023-04-03T14:06:00;56.01;48.04;60.48;;
72858;Laerm;62742;52.136;4.500;2023-04-03T14:08:27;55.86;47.43;60.14;;
72858;Laerm;62742;52.136;4.500;2023-04-03T14:10:53;56.58;48.68;59.67;;
72858;Laerm;62742;52.136;4.500;2023-04-03T14:13:21;55.51;48.11;59.67;;
72858;Laerm;62742;52.136;4.500;2023-04-03T14:15:47;56.89;49.70;60.70;;
72858;Laerm;62742;52.136;4.500;2023-04-03T14:18:17;55.30;47.85;60.18;;
72858;Laerm;62742;52.136;4.500;2023-04-03T14:20:44;53.74;48.27;58.46;;
72858;Laerm;62742;52.136;4.500;2023-04-03T14:23:10;53.91;48.94;60.56;;
72858;Laerm;62742;52.136;4.500;2023-04-03T14:25:37;53.45;48.12;61.66;;
72858;Laerm;62742;52.136;4.500;2023-04-03T14:28:19;55.16;49.07;59.77;;
72858;Laerm;62742;52.136;4.500;2023-04-03T14:30:48;54.59;49.56;60.57;;
72858;Laerm;62742;52.136;4.500;2023-04-03T14:33:19;53.08;49.45;59.21;;
72858;Laerm;62742;52.136;4.500;2023-04-03T14:35:46;53.01;48.86;56.41;;
72858;Laerm;62742;52.136;4.500;2023-04-03T14:38:30;53.07;49.83;56.65;;
72858;Laerm;62742;52.136;4.500;2023-04-03T14:40:57;53.56;50.30;57.29;;
72858;Laerm;62742;52.136;4.500;2023-04-03T14:43:24;52.77;48.42;60.32;;
72858;Laerm;62742;52.136;4.500;2023-04-03T14:45:51;53.49;48.16;60.20;;
72858;Laerm;62742;52.136;4.500;2023-04-03T14:48:25;52.96;48.99;59.33;;
72858;Laerm;62742;52.136;4.500;2023-04-03T14:50:53;54.63;49.46;59.65;;
72858;Laerm;62742;52.136;4.500;2023-04-03T14:53:20;56.00;51.53;59.37;;
72858;Laerm;62742;52.136;4.500;2023-04-03T14:55:51;54.26;50.04;58.30;;
72858;Laerm;62742;52.136;4.500;2023-04-03T14:58:19;53.23;49.00;61.16;;
72858;Laerm;62742;52.136;4.500;2023-04-03T15:00:46;52.63;49.70;60.96;;
72858;Laerm;62742;52.136;4.500;2023-04-03T15:03:21;52.74;50.11;56.52;;
72858;Laerm;62742;52.136;4.500;2023-04-03T15:05:49;53.45;49.27;62.70;;
72858;Laerm;62742;52.136;4.500;2023-04-03T15:08:22;53.30;49.45;62.69;;
72858;Laerm;62742;52.136;4.500;2023-04-03T15:10:50;53.47;48.96;62.17;;
72858;Laerm;62742;52.136;4.500;2023-04-03T15:13:19;51.65;49.14;56.72;;
72858;Laerm;62742;52.136;4.500;2023-04-03T15:15:47;52.17;49.06;58.20;;
72858;Laerm;62742;52.136;4.500;2023-04-03T15:18:17;52.46;49.07;63.54;;
72858;Laerm;62742;52.136;4.500;2023-04-03T15:20:45;52.21;49.26;62.55;;
72858;Laerm;62742;52.136;4.500;2023-04-03T15:23:15;52.37;48.23;63.82;;
72858;Laerm;62742;52.136;4.500;2023-04-03T15:25:43;52.23;49.28;61.26;;
72858;Laerm;62742;52.136;4.500;2023-04-03T15:28:18;51.67;48.66;59.28;;
72858;Laerm;62742;52.136;4.500;2023-04-03T15:30:45;52.22;47.82;62.86;;
72858;Laerm;62742;52.136;4.500;2023-04-03T15:33:11;51.61;47.07;61.45;;
72858;Laerm;62742;52.136;4.500;2023-04-03T15:35:38;52.48;48.34;62.36;;
72858;Laerm;62742;52.136;4.500;2023-04-03T15:38:04;52.53;46.80;62.45;;
72858;Laerm;62742;52.136;4.500;2023-04-03T15:40:30;52.50;47.71;62.32;;
72858;Laerm;62742;52.136;4.500;2023-04-03T15:42:57;52.94;49.11;56.77;;
72858;Laerm;62742;52.136;4.500;2023-04-03T15:45:23;52.66;48.09;62.49;;
72858;Laerm;62742;52.136;4.500;2023-04-03T15:47:50;52.03;48.83;60.44;;
72858;Laerm;62742;52.136;4.500;2023-04-03T15:50:16;51.73;47.04;61.59;;